Time;durP1;ratioP1;P1;durP2;ratioP2;P2;SDS_P1;SDS_P2;PMS_P1;PMS_P2;Temp;Humidity;BMP_temperature;BMP_pressure;BME280_temperature;BME280_humidity;BME280_pressure;Samples;Min_cycle;Max_cycle;Signal;HPM_P1;HPM_P2
2023/02/09 00:00:11;;;;;;;12.23;8.38;;;;;;;;;;5050929;28;20021;-60
2023/02/09 00:02:37;;;;;;;12.38;8.27;;;;;;;;;;5050412;28;20382;-60
2023/02/09 00:05:03;;;;;;;14.68;9.68;;;;;;;;;;5050646;28;20056;-65
2023/02/09 00:07:29;;;;;;;10.43;8.60;;;;;;;;;;5049898;28;20033;-61
2023/02/09 00:09:55;;;;;;;11.38;8.18;;;;;;;;;;5050568;28;20428;-61
2023/02/09 00:15:07;;;;;;;15.93;8.98;;;;;;;;;;5050684;28;20576;-62
2023/02/09 00:17:34;;;;;;;11.63;8.38;;;;;;;;;;5050369;28;20029;-66
2023/02/09 00:20:00;;;;;;;13.38;9.57;;;;;;;;;;5050433;28;20104;-61
2023/02/09 00:22:26;;;;;;;13.43;9.35;;;;;;;;;;5050239;28;20053;-60
2023/02/09 00:24:52;;;;;;;10.95;8.57;;;;;;;;;;5050353;28;20059;-67
2023/02/09 00:27:18;;;;;;;11.43;8.15;;;;;;;;;;5049659;28;20485;-65
2023/02/09 00:29:44;;;;;;;14.15;8.65;;;;;;;;;;5050112;28;20067;-60
2023/02/09 00:32:10;;;;;;;14.27;9.50;;;;;;;;;;5050364;28;20037;-62
2023/02/09 00:34:37;;;;;;;12.98;8.88;;;;;;;;;;5050147;28;20017;-61
2023/02/09 00:37:03;;;;;;;13.15;8.85;;;;;;;;;;5050303;28;20079;-65
2023/02/09 00:39:29;;;;;;;11.93;8.73;;;;;;;;;;5050159;28;20021;-61
2023/02/09 00:42:09;;;;;;;11.88;8.40;;;;;;;;;;5050310;28;20036;-66
2023/02/09 00:44:37;;;;;;;11.85;8.65;;;;;;;;;;5049991;28;20021;-63
2023/02/09 00:47:03;;;;;;;10.88;7.93;;;;;;;;;;5049664;28;20151;-62
2023/02/09 00:49:29;;;;;;;12.43;9.27;;;;;;;;;;5050770;28;20047;-62
2023/02/09 00:51:55;;;;;;;12.68;8.55;;;;;;;;;;5053989;28;20100;-60
2023/02/09 00:54:21;;;;;;;12.27;8.48;;;;;;;;;;5053710;28;20051;-63
2023/02/09 00:56:48;;;;;;;14.48;8.73;;;;;;;;;;5054026;28;20036;-67
2023/02/09 00:59:14;;;;;;;11.98;7.95;;;;;;;;;;5054233;28;20051;-60
2023/02/09 01:01:40;;;;;;;11.98;8.63;;;;;;;;;;5053948;28;20048;-65
2023/02/09 01:04:06;;;;;;;10.85;7.95;;;;;;;;;;5053547;28;20025;-62
2023/02/09 01:06:32;;;;;;;11.13;7.85;;;;;;;;;;5053147;28;20037;-67
2023/02/09 01:08:58;;;;;;;11.65;7.53;;;;;;;;;;5053666;28;20074;-60
2023/02/09 01:11:27;;;;;;;12.35;8.70;;;;;;;;;;5052796;28;20032;-66
2023/02/09 01:13:54;;;;;;;10.38;7.88;;;;;;;;;;5053390;28;20033;-61
2023/02/09 01:16:20;;;;;;;11.65;8.05;;;;;;;;;;5053271;28;20060;-60
2023/02/09 01:18:46;;;;;;;12.68;7.90;;;;;;;;;;5053348;28;20056;-66
2023/02/09 01:21:13;;;;;;;10.98;8.02;;;;;;;;;;5053666;28;20028;-66
2023/02/09 01:23:39;;;;;;;13.02;8.18;;;;;;;;;;5053543;28;20109;-60
2023/02/09 01:26:06;;;;;;;12.57;8.57;;;;;;;;;;5052832;28;20040;-66
2023/02/09 01:28:32;;;;;;;11.20;7.25;;;;;;;;;;5052971;28;20025;-64
2023/02/09 01:30:58;;;;;;;11.80;7.82;;;;;;;;;;5053105;28;20443;-60
2023/02/09 01:33:24;;;;;;;11.85;8.07;;;;;;;;;;5052772;28;20032;-66
2023/02/09 01:35:56;;;;;;;11.18;7.85;;;;;;;;;;5053175;28;20033;-66
2023/02/09 01:38:22;;;;;;;11.18;8.20;;;;;;;;;;5052912;28;20432;-61
2023/02/09 01:40:48;;;;;;;11.07;7.13;;;;;;;;;;5052609;28;20078;-66
2023/02/09 01:43:14;;;;;;;10.90;7.82;;;;;;;;;;5052647;28;20398;-61
2023/02/09 01:45:44;;;;;;;11.10;7.68;;;;;;;;;;5053135;28;20037;-61
2023/02/09 01:48:10;;;;;;;10.77;7.82;;;;;;;;;;5053095;28;20021;-60
2023/02/09 01:50:38;;;;;;;10.82;7.82;;;;;;;;;;5052636;28;20588;-67
2023/02/09 01:53:05;;;;;;;9.15;7.13;;;;;;;;;;5052659;28;20025;-67
2023/02/09 01:55:33;;;;;;;10.52;7.38;;;;;;;;;;5052026;28;20107;-66
2023/02/09 01:58:01;;;;;;;11.32;8.25;;;;;;;;;;5052708;28;20025;-67
2023/02/09 02:00:27;;;;;;;12.02;7.82;;;;;;;;;;5052131;28;20079;-60
2023/02/09 02:02:59;;;;;;;10.45;7.65;;;;;;;;;;5051987;28;20074;-62
2023/02/09 02:05:26;;;;;;;9.50;6.88;;;;;;;;;;5051489;28;20037;-66
2023/02/09 02:08:04;;;;;;;9.98;7.00;;;;;;;;;;5052565;28;20025;-68
2023/02/09 02:10:30;;;;;;;10.63;7.75;;;;;;;;;;5052235;28;20025;-67
2023/02/09 02:12:56;;;;;;;12.38;6.90;;;;;;;;;;5051866;28;20047;-61
2023/02/09 02:15:26;;;;;;;12.65;7.93;;;;;;;;;;5052067;28;20143;-68
2023/02/09 02:17:55;;;;;;;10.07;7.68;;;;;;;;;;5052195;28;20461;-67
2023/02/09 02:20:40;;;;;;;10.38;7.18;;;;;;;;;;5052035;28;20404;-67
2023/02/09 02:23:42;;;;;;;9.73;7.35;;;;;;;;;;5052173;28;20025;-67
2023/02/09 02:26:30;;;;;;;10.35;7.13;;;;;;;;;;4951600;29;20442;-67
2023/02/09 02:29:20;;;;;;;9.75;6.28;;;;;;;;;;5029479;28;20064;-60
2023/02/09 02:31:57;;;;;;;10.10;7.80;;;;;;;;;;5051456;28;20493;-61
2023/02/09 02:34:23;;;;;;;9.27;6.25;;;;;;;;;;5051849;28;20021;-66
2023/02/09 02:37:07;;;;;;;10.60;7.15;;;;;;;;;;5052003;28;20025;-61
2023/02/09 02:39:36;;;;;;;10.80;6.93;;;;;;;;;;5051647;28;20370;-61
2023/02/09 02:45:13;;;;;;;9.75;7.00;;;;;;;;;;5051390;28;20050;-61
2023/02/09 02:47:42;;;;;;;10.40;6.63;;;;;;;;;;5052088;28;20032;-66
2023/02/09 02:50:13;;;;;;;8.85;6.68;;;;;;;;;;5051743;28;20075;-67
2023/02/09 02:52:40;;;;;;;8.55;6.25;;;;;;;;;;5051871;28;20064;-67
2023/02/09 02:55:12;;;;;;;8.82;6.15;;;;;;;;;;5051604;28;20036;-61
2023/02/09 02:57:40;;;;;;;8.98;6.60;;;;;;;;;;5051281;28;20496;-66
2023/02/09 03:00:08;;;;;;;8.60;6.28;;;;;;;;;;5051072;28;20037;-67
2023/02/09 03:02:36;;;;;;;9.90;6.13;;;;;;;;;;5051330;28;20455;-66
2023/02/09 03:05:03;;;;;;;8.25;6.38;;;;;;;;;;5051341;28;20033;-67
2023/02/09 03:07:29;;;;;;;9.07;6.60;;;;;;;;;;5050838;28;20033;-66
2023/02/09 03:09:55;;;;;;;8.60;6.45;;;;;;;;;;5051342;28;20060;-67
2023/02/09 03:12:32;;;;;;;9.00;6.10;;;;;;;;;;5050944;28;20067;-61
2023/02/09 03:15:18;;;;;;;8.50;6.50;;;;;;;;;;5050909;28;20039;-61
2023/02/09 03:18:00;;;;;;;8.63;5.47;;;;;;;;;;5051498;28;20428;-63
2023/02/09 03:20:52;;;;;;;7.25;6.00;;;;;;;;;;5051028;28;20099;-61
2023/02/09 03:23:37;;;;;;;7.80;5.78;;;;;;;;;;5013081;28;20083;-60
2023/02/09 03:26:07;;;;;;;7.60;5.95;;;;;;;;;;5051000;28;20036;-67
2023/02/09 03:28:34;;;;;;;8.90;6.15;;;;;;;;;;5050465;28;20031;-66
2023/02/09 03:31:01;;;;;;;7.53;5.43;;;;;;;;;;5051032;28;20106;-59
2023/02/09 03:33:28;;;;;;;9.48;6.28;;;;;;;;;;5050774;28;20096;-65
2023/02/09 03:35:55;;;;;;;6.78;4.78;;;;;;;;;;5050918;28;20029;-66
2023/02/09 03:38:21;;;;;;;7.47;5.82;;;;;;;;;;5050581;28;20031;-66
2023/02/09 03:40:47;;;;;;;8.77;5.72;;;;;;;;;;5050840;28;20029;-66
2023/02/09 03:43:14;;;;;;;8.25;5.38;;;;;;;;;;5050951;28;20024;-60
2023/02/09 03:45:39;;;;;;;8.20;6.10;;;;;;;;;;5051061;28;20044;-60
2023/02/09 03:48:05;;;;;;;7.57;5.78;;;;;;;;;;5050820;28;20021;-59
2023/02/09 03:50:33;;;;;;;8.20;5.22;;;;;;;;;;5050562;28;20024;-64
2023/02/09 03:52:59;;;;;;;7.20;5.40;;;;;;;;;;5050719;28;20036;-62
2023/02/09 03:55:25;;;;;;;7.22;5.47;;;;;;;;;;5050058;28;20432;-66
2023/02/09 03:57:51;;;;;;;8.07;5.65;;;;;;;;;;5050594;28;20025;-62
2023/02/09 04:00:17;;;;;;;8.18;5.57;;;;;;;;;;5050463;28;20032;-60
2023/02/09 04:02:43;;;;;;;6.55;5.57;;;;;;;;;;5050771;28;20025;-60
2023/02/09 04:05:10;;;;;;;6.25;5.05;;;;;;;;;;5050752;28;20033;-60
2023/02/09 04:07:36;;;;;;;7.82;6.03;;;;;;;;;;5050290;28;20060;-60
2023/02/09 04:10:02;;;;;;;6.00;4.55;;;;;;;;;;5050347;28;20029;-60
2023/02/09 04:12:28;;;;;;;7.78;5.72;;;;;;;;;;5050433;28;20032;-66
2023/02/09 04:14:54;;;;;;;7.60;5.13;;;;;;;;;;5050674;28;20022;-65
2023/02/09 04:17:20;;;;;;;5.53;4.38;;;;;;;;;;5050400;28;20171;-65
2023/02/09 04:19:46;;;;;;;9.07;4.95;;;;;;;;;;5050209;28;20021;-66
2023/02/09 04:22:13;;;;;;;6.20;4.88;;;;;;;;;;5050672;28;20045;-60
2023/02/09 04:24:39;;;;;;;5.97;4.75;;;;;;;;;;5051789;28;20083;-65
2023/02/09 04:27:05;;;;;;;6.90;5.07;;;;;;;;;;5054387;28;20037;-62
2023/02/09 04:29:31;;;;;;;7.35;5.30;;;;;;;;;;5054073;28;20428;-60
2023/02/09 04:31:57;;;;;;;7.35;5.05;;;;;;;;;;5054328;28;20107;-60
2023/02/09 04:34:23;;;;;;;8.38;5.40;;;;;;;;;;5053693;28;20025;-60
2023/02/09 04:36:49;;;;;;;6.50;5.22;;;;;;;;;;5054299;28;20060;-65
2023/02/09 04:39:16;;;;;;;9.23;5.55;;;;;;;;;;5054231;28;20032;-66
2023/02/09 04:41:41;;;;;;;7.80;5.13;;;;;;;;;;5054429;28;20029;-65
2023/02/09 04:44:08;;;;;;;5.47;4.38;;;;;;;;;;5054094;28;20087;-60
2023/02/09 04:46:34;;;;;;;6.03;4.97;;;;;;;;;;5053575;28;20036;-62
2023/02/09 04:49:00;;;;;;;6.55;5.00;;;;;;;;;;5053878;28;20064;-61
2023/02/09 04:51:26;;;;;;;6.22;4.60;;;;;;;;;;5053640;28;20079;-61
2023/02/09 04:53:52;;;;;;;6.32;4.65;;;;;;;;;;5054091;28;20021;-59
2023/02/09 04:56:18;;;;;;;7.50;4.70;;;;;;;;;;5053164;28;20025;-59
2023/02/09 05:01:29;;;;;;;6.75;4.65;;;;;;;;;;5053739;28;20078;-61
2023/02/09 05:03:55;;;;;;;6.30;4.60;;;;;;;;;;5035659;28;20405;-66
2023/02/09 05:06:21;;;;;;;7.90;4.90;;;;;;;;;;5053096;28;20041;-61
2023/02/09 05:08:47;;;;;;;6.53;4.65;;;;;;;;;;5053603;28;20040;-65
2023/02/09 05:11:13;;;;;;;7.28;4.43;;;;;;;;;;5053267;28;20090;-66
2023/02/09 05:13:39;;;;;;;8.23;4.53;;;;;;;;;;5053726;28;20032;-60
2023/02/09 05:16:06;;;;;;;7.30;5.10;;;;;;;;;;5053546;28;20025;-60
2023/02/09 05:18:32;;;;;;;6.05;4.60;;;;;;;;;;5051400;28;20485;-66
2023/02/09 05:20:58;;;;;;;6.80;4.82;;;;;;;;;;5053339;28;20028;-62
2023/02/09 05:23:24;;;;;;;7.72;4.30;;;;;;;;;;5053066;28;20070;-61
2023/02/09 05:25:50;;;;;;;6.57;4.63;;;;;;;;;;5053220;28;20116;-66
2023/02/09 05:28:16;;;;;;;5.93;4.40;;;;;;;;;;5052993;28;20078;-66
2023/02/09 05:30:42;;;;;;;6.28;4.25;;;;;;;;;;5053318;28;20036;-61
2023/02/09 05:33:08;;;;;;;6.55;4.60;;;;;;;;;;5052592;28;20029;-64
2023/02/09 05:35:34;;;;;;;6.13;4.43;;;;;;;;;;5051961;28;20037;-65
2023/02/09 05:38:00;;;;;;;7.00;4.35;;;;;;;;;;5052402;28;20059;-66
2023/02/09 05:40:26;;;;;;;7.72;4.50;;;;;;;;;;5052734;28;20462;-61
2023/02/09 05:42:52;;;;;;;6.75;4.72;;;;;;;;;;5052816;28;20029;-60
2023/02/09 05:45:18;;;;;;;6.50;4.50;;;;;;;;;;5052415;28;20033;-64
2023/02/09 05:47:45;;;;;;;6.57;4.63;;;;;;;;;;5052241;28;20440;-63
2023/02/09 05:50:11;;;;;;;6.07;4.13;;;;;;;;;;5053056;28;20521;-60
2023/02/09 05:52:37;;;;;;;5.80;3.83;;;;;;;;;;5052476;28;20100;-66
2023/02/09 05:55:03;;;;;;;5.82;3.97;;;;;;;;;;5052123;28;20021;-60
2023/02/09 05:57:29;;;;;;;6.78;4.45;;;;;;;;;;5052368;28;20061;-65
2023/02/09 05:59:55;;;;;;;6.18;4.45;;;;;;;;;;5052567;28;20075;-60
2023/02/09 06:02:20;;;;;;;6.15;4.38;;;;;;;;;;5051699;28;20043;-66
2023/02/09 06:04:46;;;;;;;6.10;4.07;;;;;;;;;;5052588;28;20017;-66
2023/02/09 06:07:12;;;;;;;5.63;4.28;;;;;;;;;;5052713;28;20119;-66
2023/02/09 06:09:38;;;;;;;5.78;4.13;;;;;;;;;;5052257;28;20021;-60
2023/02/09 06:12:04;;;;;;;6.75;4.40;;;;;;;;;;5051594;28;20151;-65
2023/02/09 06:14:30;;;;;;;5.88;4.25;;;;;;;;;;5052126;28;20063;-61
2023/02/09 06:16:56;;;;;;;8.90;4.22;;;;;;;;;;5051180;28;20100;-60
2023/02/09 06:19:23;;;;;;;5.70;4.28;;;;;;;;;;5052260;28;20025;-60
2023/02/09 06:21:48;;;;;;;7.03;4.22;;;;;;;;;;5052446;28;20096;-60
2023/02/09 06:24:15;;;;;;;4.97;3.80;;;;;;;;;;5051676;28;20108;-60
2023/02/09 06:26:42;;;;;;;5.38;4.07;;;;;;;;;;5051641;28;20048;-61
2023/02/09 06:29:08;;;;;;;4.85;3.97;;;;;;;;;;5051188;28;20147;-60
2023/02/09 06:31:34;;;;;;;6.65;4.30;;;;;;;;;;5051634;28;20036;-63
2023/02/09 06:34:00;;;;;;;5.28;4.13;;;;;;;;;;5051491;28;20029;-60
2023/02/09 06:36:26;;;;;;;7.20;3.90;;;;;;;;;;5051951;28;20078;-62
2023/02/09 06:38:52;;;;;;;6.18;3.88;;;;;;;;;;5052097;28;20064;-59
2023/02/09 06:41:18;;;;;;;5.07;3.80;;;;;;;;;;5051775;28;20025;-60
2023/02/09 06:43:44;;;;;;;5.57;3.85;;;;;;;;;;5052040;28;20067;-61
2023/02/09 06:46:11;;;;;;;4.75;3.60;;;;;;;;;;5052163;28;20025;-61
2023/02/09 06:48:37;;;;;;;4.53;3.50;;;;;;;;;;5050467;28;20171;-62
2023/02/09 06:51:08;;;;;;;7.40;4.25;;;;;;;;;;5051398;28;20029;-60
2023/02/09 06:53:34;;;;;;;5.90;4.20;;;;;;;;;;5051473;28;20056;-61
2023/02/09 06:56:00;;;;;;;5.68;3.75;;;;;;;;;;5051707;28;20096;-61
2023/02/09 06:58:26;;;;;;;4.57;3.72;;;;;;;;;;5051395;28;20028;-61
2023/02/09 07:00:52;;;;;;;6.72;3.85;;;;;;;;;;5051591;28;20029;-61
2023/02/09 07:03:18;;;;;;;8.50;3.92;;;;;;;;;;5050926;28;20024;-61
2023/02/09 07:05:44;;;;;;;5.38;3.35;;;;;;;;;;5050587;28;20037;-60
2023/02/09 07:08:10;;;;;;;6.00;3.83;;;;;;;;;;5050691;28;20441;-61
2023/02/09 07:10:36;;;;;;;7.45;4.32;;;;;;;;;;5050691;28;20024;-61
2023/02/09 07:13:02;;;;;;;7.07;4.57;;;;;;;;;;5046830;28;20155;-61
2023/02/09 07:15:28;;;;;;;8.70;4.85;;;;;;;;;;5058749;28;20512;-61
2023/02/09 07:17:54;;;;;;;6.07;4.15;;;;;;;;;;5051404;28;20029;-60
2023/02/09 07:20:20;;;;;;;8.80;4.68;;;;;;;;;;5050857;28;20032;-61
2023/02/09 07:22:46;;;;;;;8.15;4.55;;;;;;;;;;5049270;28;20056;-60
2023/02/09 07:25:12;;;;;;;8.63;4.78;;;;;;;;;;5052335;28;20078;-61
2023/02/09 07:27:42;;;;;;;9.63;4.80;;;;;;;;;;5049992;28;20028;-60
2023/02/09 07:30:08;;;;;;;7.70;3.92;;;;;;;;;;5051076;28;20017;-62
2023/02/09 07:32:36;;;;;;;8.48;4.35;;;;;;;;;;5050895;28;20029;-61
2023/02/09 07:35:02;;;;;;;7.43;4.57;;;;;;;;;;5051211;28;20393;-61
2023/02/09 07:37:28;;;;;;;7.93;4.57;;;;;;;;;;5050057;28;20033;-61
2023/02/09 07:39:54;;;;;;;15.07;4.38;;;;;;;;;;5050458;28;20032;-61
2023/02/09 07:42:20;;;;;;;6.80;4.35;;;;;;;;;;5050798;28;20033;-63
2023/02/09 07:44:46;;;;;;;9.13;4.18;;;;;;;;;;5050750;28;20083;-62
2023/02/09 07:47:12;;;;;;;7.47;4.28;;;;;;;;;;5051418;28;20040;-62
2023/02/09 07:49:38;;;;;;;9.95;4.45;;;;;;;;;;5050580;28;20467;-60
2023/02/09 07:52:04;;;;;;;11.35;4.60;;;;;;;;;;5050978;28;20063;-62
2023/02/09 07:54:30;;;;;;;7.53;4.65;;;;;;;;;;5049445;28;20473;-61
2023/02/09 07:56:56;;;;;;;7.90;4.05;;;;;;;;;;5050846;28;20029;-61
2023/02/09 07:59:22;;;;;;;7.45;4.32;;;;;;;;;;5050773;28;20025;-61
2023/02/09 08:01:50;;;;;;;12.52;4.97;;;;;;;;;;5053050;28;20027;-60
2023/02/09 08:04:16;;;;;;;9.90;4.05;;;;;;;;;;5051086;28;20032;-61
2023/02/09 08:06:44;;;;;;;7.55;4.00;;;;;;;;;;5053474;28;20032;-61
2023/02/09 08:09:11;;;;;;;7.38;3.97;;;;;;;;;;5052298;28;20488;-62
2023/02/09 08:11:39;;;;;;;6.28;3.50;;;;;;;;;;5054621;28;20031;-63
2023/02/09 08:14:08;;;;;;;6.75;3.88;;;;;;;;;;5053834;28;20485;-63
2023/02/09 08:16:35;;;;;;;5.88;3.78;;;;;;;;;;5054606;28;20543;-64
2023/02/09 08:19:12;;;;;;;6.45;3.50;;;;;;;;;;5054768;28;20074;-64
2023/02/09 08:21:39;;;;;;;6.15;4.00;;;;;;;;;;5054336;28;20436;-64
2023/02/09 08:24:06;;;;;;;11.02;3.95;;;;;;;;;;5054774;28;20086;-64
2023/02/09 08:26:32;;;;;;;5.88;4.20;;;;;;;;;;5054410;28;20508;-64
2023/02/09 08:28:58;;;;;;;11.02;3.92;;;;;;;;;;5054112;28;20029;-64
2023/02/09 08:31:24;;;;;;;8.00;4.50;;;;;;;;;;5053542;28;20485;-64
2023/02/09 08:33:51;;;;;;;7.35;3.85;;;;;;;;;;5053649;28;20025;-65
2023/02/09 08:36:17;;;;;;;6.85;3.60;;;;;;;;;;5053455;28;20482;-64
2023/02/09 08:38:44;;;;;;;7.55;3.72;;;;;;;;;;5053653;28;20025;-63
2023/02/09 08:41:11;;;;;;;6.55;3.95;;;;;;;;;;5053880;28;20040;-64
2023/02/09 08:43:37;;;;;;;7.50;3.95;;;;;;;;;;5053054;28;20096;-64
2023/02/09 08:46:07;;;;;;;7.88;4.15;;;;;;;;;;5054299;28;20036;-65
2023/02/09 08:48:33;;;;;;;6.40;3.60;;;;;;;;;;5053995;28;20049;-65
2023/02/09 08:50:59;;;;;;;6.10;3.92;;;;;;;;;;5053623;28;20098;-65
2023/02/09 08:53:26;;;;;;;7.38;3.97;;;;;;;;;;5054000;28;20079;-65
2023/02/09 08:55:52;;;;;;;5.65;3.72;;;;;;;;;;5054171;28;20025;-65
2023/02/09 08:58:18;;;;;;;8.10;3.10;;;;;;;;;;5054190;28;20440;-67
2023/02/09 09:00:45;;;;;;;7.07;3.72;;;;;;;;;;5054201;28;20025;-63
2023/02/09 09:03:11;;;;;;;5.35;3.67;;;;;;;;;;5054386;28;20143;-66
2023/02/09 09:05:37;;;;;;;5.93;3.10;;;;;;;;;;5053141;28;20041;-65
2023/02/09 09:08:03;;;;;;;6.65;3.78;;;;;;;;;;5052742;28;20025;-64
2023/02/09 09:10:29;;;;;;;5.68;3.55;;;;;;;;;;5052504;28;20037;-63
2023/02/09 09:12:55;;;;;;;7.30;4.00;;;;;;;;;;5052699;28;20021;-65
2023/02/09 09:15:21;;;;;;;5.40;3.38;;;;;;;;;;5052959;28;20394;-65
2023/02/09 09:17:47;;;;;;;7.05;3.50;;;;;;;;;;5052377;28;20028;-65
2023/02/09 09:20:13;;;;;;;5.90;3.63;;;;;;;;;;5053187;28;20040;-66
2023/02/09 09:22:39;;;;;;;6.38;3.40;;;;;;;;;;5053247;28;20029;-65
2023/02/09 09:25:06;;;;;;;5.25;3.78;;;;;;;;;;5053634;28;20033;-65
2023/02/09 09:27:33;;;;;;;6.30;3.70;;;;;;;;;;5052677;28;20037;-64
2023/02/09 09:29:59;;;;;;;5.63;3.70;;;;;;;;;;5053429;28;20500;-65
2023/02/09 09:32:26;;;;;;;6.70;3.92;;;;;;;;;;5052564;28;20110;-65
2023/02/09 09:34:53;;;;;;;6.82;3.65;;;;;;;;;;5053165;28;20019;-66
2023/02/09 09:37:19;;;;;;;4.97;3.50;;;;;;;;;;5053197;28;20032;-65
2023/02/09 09:39:45;;;;;;;6.82;3.53;;;;;;;;;;5053139;28;20028;-61
2023/02/09 09:42:33;;;;;;;7.05;3.05;;;;;;;;;;5053577;28;20033;-65
2023/02/09 09:44:59;;;;;;;5.45;3.35;;;;;;;;;;5053013;28;20021;-65
2023/02/09 09:47:34;;;;;;;5.38;3.50;;;;;;;;;;5052621;28;20037;-65
2023/02/09 09:50:00;;;;;;;6.00;3.22;;;;;;;;;;5053218;28;20480;-64
2023/02/09 09:52:26;;;;;;;6.78;4.05;;;;;;;;;;5052921;28;20064;-65
2023/02/09 09:54:52;;;;;;;4.88;3.30;;;;;;;;;;5053115;28;20052;-64
2023/02/09 09:57:20;;;;;;;6.28;3.63;;;;;;;;;;5051248;28;20021;-64
2023/02/09 09:59:46;;;;;;;7.50;3.20;;;;;;;;;;5051466;28;20036;-64
2023/02/09 10:02:22;;;;;;;5.22;3.15;;;;;;;;;;5051343;28;20032;-62
2023/02/09 10:04:48;;;;;;;5.10;3.83;;;;;;;;;;5050516;28;20013;-65
2023/02/09 10:07:19;;;;;;;8.07;3.42;;;;;;;;;;5051511;28;20037;-62
2023/02/09 10:09:58;;;;;;;6.50;3.10;;;;;;;;;;5051248;28;20453;-65
2023/02/09 10:12:37;;;;;;;5.35;3.00;;;;;;;;;;5049102;28;20025;-64
2023/02/09 10:15:16;;;;;;;7.32;3.40;;;;;;;;;;5049993;28;20338;-65
2023/02/09 10:17:42;;;;;;;5.00;3.30;;;;;;;;;;5049745;28;20025;-65
2023/02/09 10:20:08;;;;;;;5.25;3.17;;;;;;;;;;5050921;28;20031;-65
2023/02/09 10:22:34;;;;;;;5.25;3.40;;;;;;;;;;5049841;28;20059;-65
2023/02/09 10:25:01;;;;;;;6.20;3.53;;;;;;;;;;5051869;28;20096;-65
2023/02/09 10:27:28;;;;;;;5.55;3.17;;;;;;;;;;5051458;28;20041;-63
2023/02/09 10:29:55;;;;;;;4.22;3.15;;;;;;;;;;5051577;28;20473;-63
2023/02/09 10:32:23;;;;;;;5.13;3.58;;;;;;;;;;5051252;28;20485;-61
2023/02/09 10:34:50;;;;;;;5.70;3.30;;;;;;;;;;5051242;28;20021;-62
2023/02/09 10:37:16;;;;;;;5.50;3.40;;;;;;;;;;5051620;28;20036;-63
2023/02/09 10:39:42;;;;;;;5.20;3.47;;;;;;;;;;5052570;28;20075;-64
2023/02/09 10:42:28;;;;;;;6.05;3.35;;;;;;;;;;5052063;28;20473;-63
2023/02/09 10:44:56;;;;;;;5.25;3.25;;;;;;;;;;5052149;28;20053;-65
2023/02/09 10:47:22;;;;;;;6.60;4.03;;;;;;;;;;5033832;28;20393;-64
2023/02/09 10:50:05;;;;;;;5.45;3.28;;;;;;;;;;5051929;28;20033;-61
2023/02/09 10:52:33;;;;;;;5.40;3.50;;;;;;;;;;5051254;28;20017;-64
2023/02/09 10:55:06;;;;;;;6.00;3.67;;;;;;;;;;5051623;28;20068;-63
2023/02/09 10:57:37;;;;;;;4.90;3.25;;;;;;;;;;5051643;28;20044;-65
2023/02/09 11:00:23;;;;;;;7.25;3.75;;;;;;;;;;5050411;28;20489;-63
2023/02/09 11:02:51;;;;;;;5.97;3.63;;;;;;;;;;5045310;28;20551;-64
2023/02/09 11:05:19;;;;;;;6.22;4.13;;;;;;;;;;5051407;28;20021;-64
2023/02/09 11:07:49;;;;;;;5.72;3.53;;;;;;;;;;5051645;28;20045;-64
2023/02/09 11:10:15;;;;;;;5.10;3.30;;;;;;;;;;5050659;28;20024;-64
2023/02/09 11:12:42;;;;;;;6.38;3.60;;;;;;;;;;5050996;28;20041;-64
2023/02/09 11:15:26;;;;;;;4.72;3.38;;;;;;;;;;5050163;28;20431;-64
2023/02/09 11:18:15;;;;;;;4.95;3.40;;;;;;;;;;5048195;28;20116;-63
2023/02/09 11:20:50;;;;;;;4.90;3.72;;;;;;;;;;5033078;28;20086;-63
2023/02/09 11:23:25;;;;;;;5.28;3.08;;;;;;;;;;5047533;28;20500;-60
2023/02/09 11:26:00;;;;;;;6.83;3.87;;;;;;;;;;5050518;28;20028;-64
2023/02/09 11:28:44;;;;;;;6.68;3.58;;;;;;;;;;5049087;28;20256;-62
2023/02/09 11:31:22;;;;;;;7.43;3.85;;;;;;;;;;5051594;28;20033;-60
2023/02/09 11:33:51;;;;;;;7.38;3.30;;;;;;;;;;5051243;28;20059;-65
2023/02/09 11:36:21;;;;;;;6.18;3.88;;;;;;;;;;5050323;28;20040;-63
2023/02/09 11:38:53;;;;;;;9.20;3.83;;;;;;;;;;5051273;28;20112;-63
2023/02/09 11:44:12;;;;;;;7.60;3.70;;;;;;;;;;5049229;28;20032;-61
2023/02/09 11:46:39;;;;;;;7.47;3.67;;;;;;;;;;5048873;28;20033;-61
2023/02/09 11:49:11;;;;;;;6.05;3.95;;;;;;;;;;5049476;28;20028;-62
2023/02/09 11:51:38;;;;;;;8.35;3.83;;;;;;;;;;5049095;28;20033;-62
2023/02/09 11:54:16;;;;;;;7.25;4.25;;;;;;;;;;5050228;28;20033;-64
2023/02/09 11:56:45;;;;;;;8.13;4.38;;;;;;;;;;5048921;28;20056;-62
2023/02/09 11:59:14;;;;;;;8.98;3.88;;;;;;;;;;5051136;28;20025;-61
2023/02/09 12:01:49;;;;;;;7.20;4.63;;;;;;;;;;5051263;28;20075;-63
2023/02/09 12:04:18;;;;;;;6.85;3.45;;;;;;;;;;5049688;28;20036;-63
2023/02/09 12:06:47;;;;;;;7.72;3.97;;;;;;;;;;5046753;28;20505;-61
2023/02/09 12:09:19;;;;;;;6.78;4.10;;;;;;;;;;5049130;28;20515;-62
2023/02/09 12:11:51;;;;;;;7.43;3.85;;;;;;;;;;5047364;28;20433;-64
2023/02/09 12:14:40;;;;;;;7.40;4.80;;;;;;;;;;5049448;28;20091;-63
2023/02/09 12:17:26;;;;;;;6.65;3.92;;;;;;;;;;5034890;28;20087;-64
2023/02/09 12:19:59;;;;;;;7.90;3.92;;;;;;;;;;5017899;28;20033;-62
2023/02/09 12:22:31;;;;;;;8.65;4.35;;;;;;;;;;5046025;28;20029;-63
2023/02/09 12:25:16;;;;;;;6.55;4.22;;;;;;;;;;5048254;28;20032;-63
2023/02/09 12:27:43;;;;;;;6.43;4.05;;;;;;;;;;5048611;28;20029;-64
2023/02/09 12:30:28;;;;;;;6.38;4.30;;;;;;;;;;5046981;28;20389;-63
2023/02/09 12:33:14;;;;;;;7.40;3.92;;;;;;;;;;5048472;28;20021;-63
2023/02/09 12:35:40;;;;;;;6.18;4.07;;;;;;;;;;5048312;28;20037;-60
2023/02/09 12:38:26;;;;;;;6.88;4.38;;;;;;;;;;5048530;28;20094;-63
2023/02/09 12:41:03;;;;;;;7.07;3.70;;;;;;;;;;4997831;28;20043;-61
2023/02/09 12:43:30;;;;;;;10.45;3.85;;;;;;;;;;5048277;28;20032;-63
2023/02/09 12:46:14;;;;;;;5.63;3.78;;;;;;;;;;5049811;28;20025;-63
2023/02/09 12:48:59;;;;;;;7.03;3.95;;;;;;;;;;5050902;28;20021;-62
2023/02/09 12:51:40;;;;;;;5.88;3.88;;;;;;;;;;5051377;28;20025;-60
2023/02/09 12:54:25;;;;;;;6.32;4.07;;;;;;;;;;5051349;28;20021;-63
2023/02/09 12:56:51;;;;;;;6.80;3.85;;;;;;;;;;5053146;28;20017;-61
2023/02/09 12:59:18;;;;;;;5.82;3.53;;;;;;;;;;5052955;28;20036;-60
2023/02/09 13:02:03;;;;;;;6.53;4.28;;;;;;;;;;5054088;28;20035;-60
2023/02/09 13:04:31;;;;;;;6.38;3.95;;;;;;;;;;5053858;28;20557;-63
2023/02/09 13:06:57;;;;;;;6.03;3.95;;;;;;;;;;5053063;28;20566;-62
2023/02/09 13:09:30;;;;;;;6.50;4.20;;;;;;;;;;5053540;28;20021;-60
2023/02/09 13:12:03;;;;;;;8.73;4.43;;;;;;;;;;5053989;28;20021;-64
2023/02/09 13:14:29;;;;;;;6.85;4.20;;;;;;;;;;5052742;28;20466;-63
2023/02/09 13:16:58;;;;;;;9.77;4.72;;;;;;;;;;5053155;28;20021;-62
2023/02/09 13:19:42;;;;;;;6.20;3.90;;;;;;;;;;5053421;28;20099;-63
2023/02/09 13:22:31;;;;;;;7.07;3.65;;;;;;;;;;5033728;28;20030;-60
2023/02/09 13:25:09;;;;;;;7.60;4.10;;;;;;;;;;5033738;28;20087;-65
2023/02/09 13:27:42;;;;;;;7.50;4.28;;;;;;;;;;5033369;28;20056;-62
2023/02/09 13:30:13;;;;;;;6.65;4.18;;;;;;;;;;5036835;28;20040;-61
2023/02/09 13:32:48;;;;;;;6.47;3.50;;;;;;;;;;5049404;28;20032;-61
2023/02/09 13:35:20;;;;;;;5.32;3.90;;;;;;;;;;5053094;28;20036;-60
2023/02/09 13:37:54;;;;;;;9.10;3.88;;;;;;;;;;5053479;28;20032;-63
2023/02/09 13:40:22;;;;;;;8.13;4.45;;;;;;;;;;5052957;28;20029;-59
2023/02/09 13:43:07;;;;;;;7.05;4.13;;;;;;;;;;5053168;28;20480;-59
2023/02/09 13:45:33;;;;;;;7.35;4.10;;;;;;;;;;5052893;28;20477;-61
2023/02/09 13:48:01;;;;;;;5.68;3.40;;;;;;;;;;5053018;28;20029;-61
2023/02/09 13:50:28;;;;;;;5.35;3.72;;;;;;;;;;5052703;28;20436;-60
2023/02/09 13:52:54;;;;;;;7.68;4.07;;;;;;;;;;5052928;28;20115;-60
2023/02/09 13:55:21;;;;;;;6.85;3.70;;;;;;;;;;5052249;28;20133;-60
2023/02/09 13:57:52;;;;;;;6.03;3.78;;;;;;;;;;5050484;28;20021;-60
2023/02/09 14:00:28;;;;;;;7.03;4.05;;;;;;;;;;5052403;28;20029;-60
2023/02/09 14:03:03;;;;;;;5.60;3.63;;;;;;;;;;5052958;28;20425;-61
2023/02/09 14:05:32;;;;;;;7.33;3.70;;;;;;;;;;5052274;28;20065;-61
2023/02/09 14:07:58;;;;;;;5.78;3.80;;;;;;;;;;5052859;28;20035;-60
2023/02/09 14:10:25;;;;;;;6.38;4.20;;;;;;;;;;5052607;28;20028;-60
2023/02/09 14:12:58;;;;;;;5.38;3.75;;;;;;;;;;5052710;28;20029;-61
2023/02/09 14:18:45;;;;;;;8.02;3.85;;;;;;;;;;5052403;28;20039;-65
2023/02/09 14:21:14;;;;;;;5.75;3.38;;;;;;;;;;5052819;28;20044;-64
2023/02/09 14:23:41;;;;;;;7.10;4.63;;;;;;;;;;5052774;28;20029;-60
2023/02/09 14:26:13;;;;;;;6.55;4.13;;;;;;;;;;5052403;28;20048;-61
2023/02/09 14:28:39;;;;;;;7.30;4.07;;;;;;;;;;5052026;28;20021;-62
2023/02/09 14:31:06;;;;;;;7.25;4.47;;;;;;;;;;5052454;28;20025;-63
2023/02/09 14:33:34;;;;;;;7.10;4.03;;;;;;;;;;5051376;28;20079;-66
2023/02/09 14:36:01;;;;;;;7.15;4.22;;;;;;;;;;5040924;28;20566;-65
2023/02/09 14:38:34;;;;;;;9.60;4.63;;;;;;;;;;5052062;28;20400;-67
2023/02/09 14:41:17;;;;;;;6.10;4.10;;;;;;;;;;5052036;28;20485;-65
2023/02/09 14:43:43;;;;;;;8.88;4.40;;;;;;;;;;5052535;28;20099;-64
2023/02/09 14:46:09;;;;;;;6.15;4.25;;;;;;;;;;5052066;28;20108;-64
2023/02/09 14:48:35;;;;;;;6.60;4.20;;;;;;;;;;5051542;28;20029;-65
2023/02/09 14:51:09;;;;;;;7.10;4.43;;;;;;;;;;5051953;28;20017;-65
2023/02/09 14:53:35;;;;;;;6.38;4.82;;;;;;;;;;5051353;28;20025;-65
2023/02/09 14:56:01;;;;;;;11.73;4.38;;;;;;;;;;5051896;28;20477;-62
2023/02/09 14:58:29;;;;;;;6.72;4.18;;;;;;;;;;5050893;28;20040;-66
2023/02/09 15:00:56;;;;;;;8.98;4.40;;;;;;;;;;5051365;28;20017;-64
2023/02/09 15:03:22;;;;;;;7.45;4.60;;;;;;;;;;5050954;28;20021;-65
2023/02/09 15:05:49;;;;;;;6.03;3.85;;;;;;;;;;5051367;28;20436;-65